sensor_id;sensor_type;location;lat;lon;timestamp;pressure;altitude;pressure_sealevel;temperature;humidity
58662;BME280;44432;49.786;22.760;2023-10-08T00:01:18;98847.50;;;11.64;84.06
58662;BME280;44432;49.786;22.760;2023-10-08T00:03:50;98847.36;;;11.49;84.75
58662;BME280;44432;49.786;22.760;2023-10-08T00:06:23;98851.28;;;11.42;85.12
58662;BME280;44432;49.786;22.760;2023-10-08T00:08:54;98860.41;;;11.32;85.25
58662;BME280;44432;49.786;22.760;2023-10-08T00:11:29;98868.60;;;11.26;85.50
58662;BME280;44432;49.786;22.760;2023-10-08T00:14:00;98867.59;;;11.23;85.89
58662;BME280;44432;49.786;22.760;2023-10-08T00:16:30;98872.37;;;11.24;86.26
58662;BME280;44432;49.786;22.760;2023-10-08T00:19:02;98865.20;;;11.25;86.63
58662;BME280;44432;49.786;22.760;2023-10-08T00:21:37;98868.62;;;11.28;87.08
58662;BME280;44432;49.786;22.760;2023-10-08T00:24:09;98860.48;;;11.31;87.03
58662;BME280;44432;49.786;22.760;2023-10-08T00:26:41;98854.54;;;11.32;86.80
58662;BME280;44432;49.786;22.760;2023-10-08T00:29:12;98844.33;;;11.34;87.03
58662;BME280;44432;49.786;22.760;2023-10-08T00:31:50;98841.84;;;11.38;86.99
58662;BME280;44432;49.786;22.760;2023-10-08T00:34:21;98848.58;;;11.38;86.86
58662;BME280;44432;49.786;22.760;2023-10-08T00:36:54;98844.67;;;11.38;86.53
58662;BME280;44432;49.786;22.760;2023-10-08T00:39:24;98850.83;;;11.29;85.87
58662;BME280;44432;49.786;22.760;2023-10-08T00:41:56;98843.00;;;11.23;86.19
58662;BME280;44432;49.786;22.760;2023-10-08T00:44:28;98837.27;;;11.20;86.32
58662;BME280;44432;49.786;22.760;2023-10-08T00:47:00;98838.67;;;11.13;86.14
58662;BME280;44432;49.786;22.760;2023-10-08T00:49:34;98842.88;;;11.07;86.35
58662;BME280;44432;49.786;22.760;2023-10-08T00:52:23;98837.84;;;11.00;86.39
58662;BME280;44432;49.786;22.760;2023-10-08T00:55:00;98844.88;;;11.00;86.87
58662;BME280;44432;49.786;22.760;2023-10-08T00:57:38;98847.66;;;11.02;87.08
58662;BME280;44432;49.786;22.760;2023-10-08T01:00:13;98854.52;;;11.03;87.39
58662;BME280;44432;49.786;22.760;2023-10-08T01:02:50;98856.71;;;11.03;87.41
58662;BME280;44432;49.786;22.760;2023-10-08T01:05:29;98851.65;;;11.01;87.52
58662;BME280;44432;49.786;22.760;2023-10-08T01:08:21;98861.56;;;10.98;87.33
58662;BME280;44432;49.786;22.760;2023-10-08T01:14:01;98873.05;;;10.97;87.52
58662;BME280;44432;49.786;22.760;2023-10-08T01:16:36;98879.45;;;10.93;87.48
58662;BME280;44432;49.786;22.760;2023-10-08T01:19:08;98885.14;;;10.89;87.71
58662;BME280;44432;49.786;22.760;2023-10-08T01:21:43;98895.53;;;10.87;88.12
58662;BME280;44432;49.786;22.760;2023-10-08T01:24:14;98898.24;;;10.85;88.24
58662;BME280;44432;49.786;22.760;2023-10-08T01:26:46;98895.76;;;10.85;88.12
58662;BME280;44432;49.786;22.760;2023-10-08T01:29:17;98901.88;;;10.81;88.17
58662;BME280;44432;49.786;22.760;2023-10-08T01:31:49;98911.77;;;10.78;88.48
58662;BME280;44432;49.786;22.760;2023-10-08T01:34:22;98913.80;;;10.75;88.49
58662;BME280;44432;49.786;22.760;2023-10-08T01:36:58;98909.08;;;10.72;88.68
58662;BME280;44432;49.786;22.760;2023-10-08T01:39:34;98912.45;;;10.70;88.89
58662;BME280;44432;49.786;22.760;2023-10-08T01:42:04;98918.61;;;10.67;89.13
58662;BME280;44432;49.786;22.760;2023-10-08T01:44:37;98926.25;;;10.67;89.17
58662;BME280;44432;49.786;22.760;2023-10-08T01:47:07;98938.09;;;10.65;89.49
58662;BME280;44432;49.786;22.760;2023-10-08T01:49:41;98939.98;;;10.59;89.32
58662;BME280;44432;49.786;22.760;2023-10-08T01:52:13;98940.34;;;10.57;89.47
58662;BME280;44432;49.786;22.760;2023-10-08T01:54:50;98938.05;;;10.58;89.59
58662;BME280;44432;49.786;22.760;2023-10-08T01:57:23;98932.64;;;10.59;89.80
58662;BME280;44432;49.786;22.760;2023-10-08T01:59:54;98931.17;;;10.60;89.82
58662;BME280;44432;49.786;22.760;2023-10-08T02:02:26;98927.14;;;10.61;89.94
58662;BME280;44432;49.786;22.760;2023-10-08T02:04:56;98928.14;;;10.61;90.11
58662;BME280;44432;49.786;22.760;2023-10-08T02:07:27;98926.20;;;10.61;90.10
58662;BME280;44432;49.786;22.760;2023-10-08T02:09:58;98928.44;;;10.60;90.46
58662;BME280;44432;49.786;22.760;2023-10-08T02:12:28;98931.73;;;10.57;89.99
58662;BME280;44432;49.786;22.760;2023-10-08T02:14:59;98926.10;;;10.52;90.27
58662;BME280;44432;49.786;22.760;2023-10-08T02:17:32;98922.38;;;10.51;90.68
58662;BME280;44432;49.786;22.760;2023-10-08T02:20:03;98920.35;;;10.54;90.74
58662;BME280;44432;49.786;22.760;2023-10-08T02:22:35;98914.84;;;10.53;90.77
58662;BME280;44432;49.786;22.760;2023-10-08T02:25:08;98923.70;;;10.55;90.99
58662;BME280;44432;49.786;22.760;2023-10-08T02:27:40;98918.87;;;10.56;91.09
58662;BME280;44432;49.786;22.760;2023-10-08T02:30:12;98926.39;;;10.59;91.43
58662;BME280;44432;49.786;22.760;2023-10-08T02:32:43;98929.29;;;10.60;91.39
58662;BME280;44432;49.786;22.760;2023-10-08T02:35:15;98929.33;;;10.64;91.56
58662;BME280;44432;49.786;22.760;2023-10-08T02:37:46;98939.99;;;10.65;91.56
58662;BME280;44432;49.786;22.760;2023-10-08T02:40:17;98942.09;;;10.67;91.51
58662;BME280;44432;49.786;22.760;2023-10-08T02:42:55;98939.61;;;10.67;91.49
58662;BME280;44432;49.786;22.760;2023-10-08T02:45:28;98941.64;;;10.67;91.60
58662;BME280;44432;49.786;22.760;2023-10-08T02:47:58;98938.27;;;10.70;91.98
58662;BME280;44432;49.786;22.760;2023-10-08T02:50:29;98942.98;;;10.70;91.21
58662;BME280;44432;49.786;22.760;2023-10-08T02:53:02;98949.80;;;10.59;90.16
58662;BME280;44432;49.786;22.760;2023-10-08T02:55:40;98942.63;;;10.48;90.06
58662;BME280;44432;49.786;22.760;2023-10-08T02:58:13;98948.30;;;10.42;90.42
58662;BME280;44432;49.786;22.760;2023-10-08T03:00:46;98947.50;;;10.35;90.36
58662;BME280;44432;49.786;22.760;2023-10-08T03:03:17;98962.75;;;10.29;90.32
58662;BME280;44432;49.786;22.760;2023-10-08T03:05:49;98970.02;;;10.18;90.12
58662;BME280;44432;49.786;22.760;2023-10-08T03:08:20;98973.85;;;10.10;90.16
58662;BME280;44432;49.786;22.760;2023-10-08T03:10:53;98974.66;;;10.01;90.07
58662;BME280;44432;49.786;22.760;2023-10-08T03:13:24;98970.42;;;9.93;90.17
58662;BME280;44432;49.786;22.760;2023-10-08T03:15:56;98970.81;;;9.85;90.24
58662;BME280;44432;49.786;22.760;2023-10-08T03:18:37;98964.64;;;9.80;90.52
58662;BME280;44432;49.786;22.760;2023-10-08T03:21:12;98956.41;;;9.78;90.93
58662;BME280;44432;49.786;22.760;2023-10-08T03:23:51;98956.64;;;9.77;90.98
58662;BME280;44432;49.786;22.760;2023-10-08T03:26:22;98964.65;;;9.74;90.85
58662;BME280;44432;49.786;22.760;2023-10-08T03:29:04;98963.14;;;9.71;90.95
58662;BME280;44432;49.786;22.760;2023-10-08T03:31:38;98969.48;;;9.68;90.92
58662;BME280;44432;49.786;22.760;2023-10-08T03:34:20;98977.36;;;9.66;91.20
58662;BME280;44432;49.786;22.760;2023-10-08T03:37:03;98986.09;;;9.64;91.21
58662;BME280;44432;49.786;22.760;2023-10-08T03:39:34;98991.77;;;9.63;91.43
58662;BME280;44432;49.786;22.760;2023-10-08T03:42:36;98981.73;;;9.62;91.60
58662;BME280;44432;49.786;22.760;2023-10-08T03:45:11;98967.14;;;9.65;92.00
58662;BME280;44432;49.786;22.760;2023-10-08T03:47:45;98963.80;;;9.69;92.04
58662;BME280;44432;49.786;22.760;2023-10-08T03:50:22;98963.27;;;9.69;91.60
58662;BME280;44432;49.786;22.760;2023-10-08T03:53:02;98971.98;;;9.64;91.17
58662;BME280;44432;49.786;22.760;2023-10-08T03:55:33;98972.42;;;9.59;91.36
58662;BME280;44432;49.786;22.760;2023-10-08T03:58:05;98984.02;;;9.57;91.51
58662;BME280;44432;49.786;22.760;2023-10-08T04:00:39;98983.73;;;9.55;91.29
58662;BME280;44432;49.786;22.760;2023-10-08T04:03:15;98971.77;;;9.49;91.26
58662;BME280;44432;49.786;22.760;2023-10-08T04:05:52;98960.61;;;9.48;91.56
58662;BME280;44432;49.786;22.760;2023-10-08T04:08:34;98967.95;;;9.49;91.55
58662;BME280;44432;49.786;22.760;2023-10-08T04:11:12;98961.06;;;9.48;91.60
58662;BME280;44432;49.786;22.760;2023-10-08T04:13:59;98953.77;;;9.47;91.58
58662;BME280;44432;49.786;22.760;2023-10-08T04:16:33;98958.83;;;9.49;91.71
58662;BME280;44432;49.786;22.760;2023-10-08T04:19:06;98962.31;;;9.48;91.59
58662;BME280;44432;49.786;22.760;2023-10-08T04:21:37;98958.48;;;9.47;91.54
58662;BME280;44432;49.786;22.760;2023-10-08T04:24:09;98966.31;;;9.44;91.49
58662;BME280;44432;49.786;22.760;2023-10-08T04:26:44;98977.69;;;9.41;91.44
58662;BME280;44432;49.786;22.760;2023-10-08T04:29:14;98971.73;;;9.41;91.90
58662;BME280;44432;49.786;22.760;2023-10-08T04:31:51;98977.17;;;9.44;92.16
58662;BME280;44432;49.786;22.760;2023-10-08T04:34:31;98986.18;;;9.44;91.88
58662;BME280;44432;49.786;22.760;2023-10-08T04:37:02;98998.05;;;9.43;91.80
58662;BME280;44432;49.786;22.760;2023-10-08T04:39:40;99006.89;;;9.44;92.13
58662;BME280;44432;49.786;22.760;2023-10-08T04:42:16;99012.20;;;9.44;91.90
58662;BME280;44432;49.786;22.760;2023-10-08T04:44:55;99019.55;;;9.42;91.98
58662;BME280;44432;49.786;22.760;2023-10-08T04:47:28;99016.56;;;9.41;91.71
58662;BME280;44432;49.786;22.760;2023-10-08T04:50:02;99028.38;;;9.33;91.14
58662;BME280;44432;49.786;22.760;2023-10-08T04:52:36;99036.55;;;9.29;91.44
58662;BME280;44432;49.786;22.760;2023-10-08T04:55:15;99030.80;;;9.25;91.39
58662;BME280;44432;49.786;22.760;2023-10-08T04:57:49;99032.95;;;9.20;91.30
58662;BME280;44432;49.786;22.760;2023-10-08T05:00:23;99048.41;;;9.12;90.98
58662;BME280;44432;49.786;22.760;2023-10-08T05:03:10;99080.00;;;9.02;90.94
58662;BME280;44432;49.786;22.760;2023-10-08T05:05:44;99090.73;;;8.88;90.83
58662;BME280;44432;49.786;22.760;2023-10-08T05:08:36;99102.61;;;8.75;90.90
58662;BME280;44432;49.786;22.760;2023-10-08T05:11:27;99110.08;;;8.63;90.98
58662;BME280;44432;49.786;22.760;2023-10-08T05:14:16;99115.02;;;8.54;91.32
58662;BME280;44432;49.786;22.760;2023-10-08T05:16:58;99115.80;;;8.43;91.29
58662;BME280;44432;49.786;22.760;2023-10-08T05:19:33;99099.04;;;8.32;91.26
58662;BME280;44432;49.786;22.760;2023-10-08T05:22:18;99087.22;;;8.27;91.59
58662;BME280;44432;49.786;22.760;2023-10-08T05:25:09;99086.29;;;8.24;91.88
58662;BME280;44432;49.786;22.760;2023-10-08T05:27:54;99093.61;;;8.24;92.01
58662;BME280;44432;49.786;22.760;2023-10-08T05:30:29;99108.98;;;8.24;91.91
58662;BME280;44432;49.786;22.760;2023-10-08T05:33:08;99122.34;;;8.26;92.27
58662;BME280;44432;49.786;22.760;2023-10-08T05:35:53;99119.07;;;8.28;92.32
58662;BME280;44432;49.786;22.760;2023-10-08T05:38:39;99117.85;;;8.30;92.55
58662;BME280;44432;49.786;22.760;2023-10-08T05:41:20;99125.09;;;8.33;92.47
58662;BME280;44432;49.786;22.760;2023-10-08T05:44:08;99154.23;;;8.34;92.63
58662;BME280;44432;49.786;22.760;2023-10-08T05:46:53;99167.75;;;8.34;92.68
58662;BME280;44432;49.786;22.760;2023-10-08T05:49:41;99173.21;;;8.37;92.72
58662;BME280;44432;49.786;22.760;2023-10-08T05:52:45;99173.95;;;8.38;92.47
58662;BME280;44432;49.786;22.760;2023-10-08T05:55:31;99190.98;;;8.40;92.34
58662;BME280;44432;49.786;22.760;2023-10-08T05:58:16;99203.38;;;8.40;92.49
58662;BME280;44432;49.786;22.760;2023-10-08T06:01:04;99199.61;;;8.42;92.75
58662;BME280;44432;49.786;22.760;2023-10-08T06:03:55;99204.20;;;8.46;92.81
58662;BME280;44432;49.786;22.760;2023-10-08T06:06:47;99211.16;;;8.50;92.90
58662;BME280;44432;49.786;22.760;2023-10-08T06:09:27;99202.25;;;8.51;92.59
58662;BME280;44432;49.786;22.760;2023-10-08T06:12:05;99195.62;;;8.52;92.71
58662;BME280;44432;49.786;22.760;2023-10-08T06:14:41;99196.80;;;8.57;92.87
58662;BME280;44432;49.786;22.760;2023-10-08T06:17:37;99198.79;;;8.63;93.12
58662;BME280;44432;49.786;22.760;2023-10-08T06:20:35;99233.32;;;8.67;93.04
58662;BME280;44432;49.786;22.760;2023-10-08T06:23:09;99229.31;;;8.70;92.94
58662;BME280;44432;49.786;22.760;2023-10-08T06:25:41;99232.55;;;8.73;93.02
58662;BME280;44432;49.786;22.760;2023-10-08T06:28:18;99228.47;;;8.77;93.15
58662;BME280;44432;49.786;22.760;2023-10-08T06:30:50;99216.65;;;8.82;93.25
58662;BME280;44432;49.786;22.760;2023-10-08T06:33:23;99232.48;;;8.85;93.30
58662;BME280;44432;49.786;22.760;2023-10-08T06:36:01;99253.55;;;8.85;92.73
58662;BME280;44432;49.786;22.760;2023-10-08T06:38:35;99242.05;;;8.85;92.81
58662;BME280;44432;49.786;22.760;2023-10-08T06:41:10;99245.05;;;8.86;92.78
58662;BME280;44432;49.786;22.760;2023-10-08T06:43:45;99251.52;;;8.86;92.74
58662;BME280;44432;49.786;22.760;2023-10-08T06:46:17;99255.73;;;8.86;92.63
58662;BME280;44432;49.786;22.760;2023-10-08T06:48:50;99253.14;;;8.87;92.87
58662;BME280;44432;49.786;22.760;2023-10-08T06:51:23;99257.08;;;8.89;93.21
58662;BME280;44432;49.786;22.760;2023-10-08T06:53:55;99260.89;;;8.91;92.94
58662;BME280;44432;49.786;22.760;2023-10-08T06:56:29;99272.95;;;8.91;92.88
58662;BME280;44432;49.786;22.760;2023-10-08T06:59:00;99287.42;;;8.94;93.02
58662;BME280;44432;49.786;22.760;2023-10-08T07:01:32;99295.48;;;8.92;92.77
58662;BME280;44432;49.786;22.760;2023-10-08T07:04:09;99296.48;;;8.94;93.02
58662;BME280;44432;49.786;22.760;2023-10-08T07:06:42;99301.48;;;8.96;93.23
58662;BME280;44432;49.786;22.760;2023-10-08T07:09:14;99311.11;;;8.98;93.16
58662;BME280;44432;49.786;22.760;2023-10-08T07:11:58;99321.41;;;8.98;92.91
58662;BME280;44432;49.786;22.760;2023-10-08T07:14:35;99331.58;;;8.94;92.54
58662;BME280;44432;49.786;22.760;2023-10-08T07:17:07;99331.85;;;8.90;92.42
58662;BME280;44432;49.786;22.760;2023-10-08T07:19:38;99324.77;;;8.89;92.48
58662;BME280;44432;49.786;22.760;2023-10-08T07:22:10;99332.48;;;8.86;91.98
58662;BME280;44432;49.786;22.760;2023-10-08T07:24:51;99328.95;;;8.79;91.62
58662;BME280;44432;49.786;22.760;2023-10-08T07:27:22;99327.85;;;8.75;91.56
58662;BME280;44432;49.786;22.760;2023-10-08T07:29:59;99333.40;;;8.76;91.69
58662;BME280;44432;49.786;22.760;2023-10-08T07:32:32;99336.00;;;8.78;92.13
58662;BME280;44432;49.786;22.760;2023-10-08T07:35:04;99334.05;;;8.82;92.23
58662;BME280;44432;49.786;22.760;2023-10-08T07:37:53;99340.20;;;8.93;92.39
58662;BME280;44432;49.786;22.760;2023-10-08T07:40:26;99337.20;;;9.01;92.60
58662;BME280;44432;49.786;22.760;2023-10-08T07:43:00;99333.38;;;9.08;92.55
58662;BME280;44432;49.786;22.760;2023-10-08T07:45:37;99327.09;;;9.16;92.23
58662;BME280;44432;49.786;22.760;2023-10-08T07:48:08;99337.52;;;9.24;92.10
58662;BME280;44432;49.786;22.760;2023-10-08T07:50:44;99335.98;;;9.32;92.24
58662;BME280;44432;49.786;22.760;2023-10-08T07:53:15;99322.33;;;9.42;92.31
58662;BME280;44432;49.786;22.760;2023-10-08T07:55:48;99327.63;;;9.55;92.35
58662;BME280;44432;49.786;22.760;2023-10-08T07:58:19;99329.80;;;9.65;92.12
58662;BME280;44432;49.786;22.760;2023-10-08T08:00:50;99330.89;;;9.75;92.20
58662;BME280;44432;49.786;22.760;2023-10-08T08:03:24;99331.71;;;9.89;92.10
58662;BME280;44432;49.786;22.760;2023-10-08T08:05:55;99333.06;;;10.01;91.96
58662;BME280;44432;49.786;22.760;2023-10-08T08:08:28;99326.66;;;10.10;91.66
58662;BME280;44432;49.786;22.760;2023-10-08T08:10:58;99328.92;;;10.20;91.54
58662;BME280;44432;49.786;22.760;2023-10-08T08:13:33;99332.80;;;10.29;91.42
58662;BME280;44432;49.786;22.760;2023-10-08T08:16:04;99334.57;;;10.40;91.61
58662;BME280;44432;49.786;22.760;2023-10-08T08:18:48;99337.71;;;10.50;91.33
58662;BME280;44432;49.786;22.760;2023-10-08T08:21:21;99339.52;;;10.58;90.90
58662;BME280;44432;49.786;22.760;2023-10-08T08:23:52;99349.73;;;10.67;91.08
58662;BME280;44432;49.786;22.760;2023-10-08T08:26:34;99357.77;;;10.76;90.77
58662;BME280;44432;49.786;22.760;2023-10-08T08:29:10;99357.73;;;10.85;90.32
58662;BME280;44432;49.786;22.760;2023-10-08T08:31:44;99362.35;;;10.93;89.63
58662;BME280;44432;49.786;22.760;2023-10-08T08:34:15;99361.38;;;10.99;89.79
58662;BME280;44432;49.786;22.760;2023-10-08T08:36:49;99359.70;;;11.07;89.49
58662;BME280;44432;49.786;22.760;2023-10-08T08:39:20;99362.02;;;11.14;89.50
58662;BME280;44432;49.786;22.760;2023-10-08T08:42:03;99366.30;;;11.19;88.75
58662;BME280;44432;49.786;22.760;2023-10-08T08:44:37;99367.44;;;11.23;88.55
58662;BME280;44432;49.786;22.760;2023-10-08T08:47:13;99369.56;;;11.17;87.86
58662;BME280;44432;49.786;22.760;2023-10-08T08:49:47;99367.86;;;11.08;87.73
58662;BME280;44432;49.786;22.760;2023-10-08T08:52:18;99365.59;;;11.01;87.20
58662;BME280;44432;49.786;22.760;2023-10-08T08:54:49;99376.06;;;10.97;87.13
58662;BME280;44432;49.786;22.760;2023-10-08T08:57:21;99382.70;;;10.88;86.24
58662;BME280;44432;49.786;22.760;2023-10-08T08:59:54;99381.53;;;10.78;85.98
58662;BME280;44432;49.786;22.760;2023-10-08T09:02:26;99383.65;;;10.78;86.21
58662;BME280;44432;49.786;22.760;2023-10-08T09:04:57;99391.77;;;10.94;86.71
58662;BME280;44432;49.786;22.760;2023-10-08T09:07:30;99393.93;;;11.07;86.52
58662;BME280;44432;49.786;22.760;2023-10-08T09:10:00;99395.87;;;11.21;86.41
58662;BME280;44432;49.786;22.760;2023-10-08T09:12:33;99396.56;;;11.29;84.36
58662;BME280;44432;49.786;22.760;2023-10-08T09:15:05;99396.55;;;11.35;83.87
58662;BME280;44432;49.786;22.760;2023-10-08T09:17:40;99396.76;;;11.41;82.95
58662;BME280;44432;49.786;22.760;2023-10-08T09:20:11;99398.40;;;11.45;82.14
58662;BME280;44432;49.786;22.760;2023-10-08T09:22:42;99398.73;;;11.49;81.44
58662;BME280;44432;49.786;22.760;2023-10-08T09:25:13;99394.99;;;11.60;81.51
58662;BME280;44432;49.786;22.760;2023-10-08T09:27:51;99403.79;;;11.75;81.46
58662;BME280;44432;49.786;22.760;2023-10-08T09:30:25;99404.91;;;11.83;80.93
58662;BME280;44432;49.786;22.760;2023-10-08T09:32:57;99408.41;;;11.88;79.82
58662;BME280;44432;49.786;22.760;2023-10-08T09:35:28;99413.54;;;11.93;79.95
58662;BME280;44432;49.786;22.760;2023-10-08T09:37:59;99417.92;;;11.90;79.35
58662;BME280;44432;49.786;22.760;2023-10-08T09:40:32;99418.67;;;11.77;76.76
58662;BME280;44432;49.786;22.760;2023-10-08T09:43:03;99413.36;;;11.67;76.32
58662;BME280;44432;49.786;22.760;2023-10-08T09:45:35;99406.84;;;11.59;75.72
58662;BME280;44432;49.786;22.760;2023-10-08T09:48:11;99402.88;;;11.55;76.54
58662;BME280;44432;49.786;22.760;2023-10-08T09:50:43;99402.11;;;11.45;75.40
58662;BME280;44432;49.786;22.760;2023-10-08T09:53:14;99393.92;;;11.32;75.48
58662;BME280;44432;49.786;22.760;2023-10-08T09:55:52;99388.73;;;11.18;74.28
58662;BME280;44432;49.786;22.760;2023-10-08T09:58:25;99390.10;;;11.14;74.77
58662;BME280;44432;49.786;22.760;2023-10-08T10:00:58;99384.63;;;11.25;76.26
58662;BME280;44432;49.786;22.760;2023-10-08T10:03:29;99388.64;;;11.42;75.53
58662;BME280;44432;49.786;22.760;2023-10-08T10:06:00;99388.64;;;11.61;74.71
58662;BME280;44432;49.786;22.760;2023-10-08T10:08:31;99391.89;;;11.78;73.89
58662;BME280;44432;49.786;22.760;2023-10-08T10:11:05;99389.77;;;11.93;72.02
58662;BME280;44432;49.786;22.760;2023-10-08T10:13:41;99397.40;;;11.95;70.46
58662;BME280;44432;49.786;22.760;2023-10-08T10:16:16;99402.39;;;11.89;71.19
58662;BME280;44432;49.786;22.760;2023-10-08T10:18:49;99410.63;;;11.90;71.67
58662;BME280;44432;49.786;22.760;2023-10-08T10:21:28;99412.05;;;11.91;70.74
58662;BME280;44432;49.786;22.760;2023-10-08T10:24:00;99410.58;;;11.95;72.09
58662;BME280;44432;49.786;22.760;2023-10-08T10:26:33;99411.30;;;12.02;70.19
58662;BME280;44432;49.786;22.760;2023-10-08T10:29:21;99409.20;;;12.07;70.88
58662;BME280;44432;49.786;22.760;2023-10-08T10:31:55;99411.05;;;12.18;69.20
58662;BME280;44432;49.786;22.760;2023-10-08T10:34:28;99416.77;;;12.28;67.33
58662;BME280;44432;49.786;22.760;2023-10-08T10:37:00;99416.08;;;12.43;67.54
58662;BME280;44432;49.786;22.760;2023-10-08T10:39:38;99417.87;;;12.62;67.53
58662;BME280;44432;49.786;22.760;2023-10-08T10:42:11;99416.59;;;12.80;67.61
58662;BME280;44432;49.786;22.760;2023-10-08T10:44:50;99432.48;;;12.94;67.29
58662;BME280;44432;49.786;22.760;2023-10-08T10:47:23;99437.08;;;12.78;61.58
58662;BME280;44432;49.786;22.760;2023-10-08T10:49:56;99446.36;;;12.37;59.64
58662;BME280;44432;49.786;22.760;2023-10-08T10:52:41;99446.00;;;11.99;60.38
58662;BME280;44432;49.786;22.760;2023-10-08T10:55:21;99450.64;;;11.71;59.61
58662;BME280;44432;49.786;22.760;2023-10-08T10:58:01;99439.08;;;11.51;60.98
58662;BME280;44432;49.786;22.760;2023-10-08T11:00:43;99437.34;;;11.42;63.35
58662;BME280;44432;49.786;22.760;2023-10-08T11:03:17;99431.80;;;11.42;62.95
58662;BME280;44432;49.786;22.760;2023-10-08T11:05:55;99432.99;;;11.40;61.72
58662;BME280;44432;49.786;22.760;2023-10-08T11:08:29;99430.89;;;11.38;62.53
58662;BME280;44432;49.786;22.760;2023-10-08T11:11:04;99434.17;;;11.41;62.74
58662;BME280;44432;49.786;22.760;2023-10-08T11:13:39;99429.41;;;11.48;61.25
58662;BME280;44432;49.786;22.760;2023-10-08T11:16:10;99429.23;;;11.57;61.13
58662;BME280;44432;49.786;22.760;2023-10-08T11:18:47;99425.23;;;11.67;60.92
58662;BME280;44432;49.786;22.760;2023-10-08T11:21:19;99421.67;;;11.79;60.40
58662;BME280;44432;49.786;22.760;2023-10-08T11:23:53;99424.56;;;11.89;60.18
58662;BME280;44432;49.786;22.760;2023-10-08T11:26:25;99429.69;;;11.94;58.47
58662;BME280;44432;49.786;22.760;2023-10-08T11:29:03;99437.55;;;11.93;55.58
58662;BME280;44432;49.786;22.760;2023-10-08T11:31:34;99430.61;;;11.95;55.84
58662;BME280;44432;49.786;22.760;2023-10-08T11:34:05;99428.15;;;12.05;56.05
58662;BME280;44432;49.786;22.760;2023-10-08T11:36:39;99431.02;;;12.18;55.93
58662;BME280;44432;49.786;22.760;2023-10-08T11:39:22;99436.81;;;12.33;54.99
58662;BME280;44432;49.786;22.760;2023-10-08T11:42:01;99439.73;;;12.42;54.27
58662;BME280;44432;49.786;22.760;2023-10-08T11:44:35;99437.79;;;12.55;53.34
58662;BME280;44432;49.786;22.760;2023-10-08T11:47:06;99440.59;;;12.67;53.07
58662;BME280;44432;49.786;22.760;2023-10-08T11:49:43;99446.66;;;12.78;50.16
58662;BME280;44432;49.786;22.760;2023-10-08T11:52:20;99447.23;;;12.77;49.65
58662;BME280;44432;49.786;22.760;2023-10-08T11:54:51;99444.83;;;12.77;50.06
58662;BME280;44432;49.786;22.760;2023-10-08T11:57:23;99448.20;;;12.78;49.30
58662;BME280;44432;49.786;22.760;2023-10-08T11:59:55;99454.52;;;12.71;47.77
58662;BME280;44432;49.786;22.760;2023-10-08T12:02:27;99446.98;;;12.60;47.99
58662;BME280;44432;49.786;22.760;2023-10-08T12:04:58;99448.71;;;12.49;48.65
58662;BME280;44432;49.786;22.760;2023-10-08T12:07:29;99459.06;;;12.39;49.73
58662;BME280;44432;49.786;22.760;2023-10-08T12:10:01;99467.28;;;12.27;48.18
58662;BME280;44432;49.786;22.760;2023-10-08T12:12:31;99465.20;;;12.09;47.59
58662;BME280;44432;49.786;22.760;2023-10-08T12:15:03;99467.08;;;11.95;48.05
58662;BME280;44432;49.786;22.760;2023-10-08T12:17:37;99462.16;;;11.85;48.22
58662;BME280;44432;49.786;22.760;2023-10-08T12:20:10;99462.27;;;11.74;47.77
58662;BME280;44432;49.786;22.760;2023-10-08T12:22:53;99470.17;;;11.70;48.76
58662;BME280;44432;49.786;22.760;2023-10-08T12:25:26;99465.17;;;11.71;48.51
58662;BME280;44432;49.786;22.760;2023-10-08T12:27:57;99468.23;;;11.75;48.48
58662;BME280;44432;49.786;22.760;2023-10-08T12:30:27;99469.97;;;11.81;48.67
58662;BME280;44432;49.786;22.760;2023-10-08T12:33:00;99470.04;;;11.88;48.32
58662;BME280;44432;49.786;22.760;2023-10-08T12:35:31;99480.50;;;11.93;46.91
58662;BME280;44432;49.786;22.760;2023-10-08T12:38:02;99476.98;;;11.90;46.29
58662;BME280;44432;49.786;22.760;2023-10-08T12:40:34;99476.29;;;11.85;46.86
58662;BME280;44432;49.786;22.760;2023-10-08T12:43:16;99477.11;;;11.84;48.16
58662;BME280;44432;49.786;22.760;2023-10-08T12:45:49;99484.00;;;11.87;47.44
58662;BME280;44432;49.786;22.760;2023-10-08T12:48:23;99489.27;;;11.84;45.34
58662;BME280;44432;49.786;22.760;2023-10-08T12:50:56;99484.38;;;11.80;45.41
58662;BME280;44432;49.786;22.760;2023-10-08T12:53:28;99486.65;;;11.81;46.02
58662;BME280;44432;49.786;22.760;2023-10-08T12:56:03;99490.66;;;11.83;45.60
58662;BME280;44432;49.786;22.760;2023-10-08T12:58:36;99496.77;;;11.84;45.75
58662;BME280;44432;49.786;22.760;2023-10-08T13:01:11;99498.34;;;11.85;46.06
58662;BME280;44432;49.786;22.760;2023-10-08T13:03:43;99502.98;;;11.86;46.29
58662;BME280;44432;49.786;22.760;2023-10-08T13:06:18;99507.45;;;11.87;45.79
58662;BME280;44432;49.786;22.760;2023-10-08T13:08:52;99509.91;;;11.84;45.18
58662;BME280;44432;49.786;22.760;2023-10-08T13:11:25;99512.02;;;11.82;44.53
58662;BME280;44432;49.786;22.760;2023-10-08T13:13:58;99510.55;;;11.79;44.58
58662;BME280;44432;49.786;22.760;2023-10-08T13:16:29;99511.50;;;11.78;44.45
58662;BME280;44432;49.786;22.760;2023-10-08T13:19:01;99511.91;;;11.76;44.05
58662;BME280;44432;49.786;22.760;2023-10-08T13:21:32;99517.60;;;11.78;44.67
58662;BME280;44432;49.786;22.760;2023-10-08T13:24:03;99523.58;;;11.78;43.06
58662;BME280;44432;49.786;22.760;2023-10-08T13:26:38;99526.77;;;11.70;40.49
58662;BME280;44432;49.786;22.760;2023-10-08T13:29:10;99525.77;;;11.61;40.63
58662;BME280;44432;49.786;22.760;2023-10-08T13:31:43;99523.34;;;11.53;41.33
58662;BME280;44432;49.786;22.760;2023-10-08T13:34:15;99522.27;;;11.48;42.95
58662;BME280;44432;49.786;22.760;2023-10-08T13:36:46;99527.59;;;11.49;43.19